Portada
METAR-TAF:

METAR-TAF

Aeroports :

Nassau, Bahames

latitud: 25-03N, longitud: 077-28W, altitud: 3 m

Observació

L'informe es va fer fa 25 minuts, a les 15:00 UTC
Vent 9 kt del Oest, variant entre Sud-Oest i Nord-Oest
Temperatura 29°C
Humitat 79%
Pressió 1015 hPa
Visibilitat 10 km o més
Cel ennuvolat a una alçada de 1800 ft

METAR: MYNN 261500Z 26009KT 230V320 9999 BKN018 29/25 A2998

Hora: 11:25 (15:25 UTC)

Pronòstic

Pronòstic vàlid del 26 a les 12 UTC al 27 a les 12 UTC
Vent 6 kt del Oest/Sud-Oest
Visibilitat 10 km o més
Escasses núvols a una alçada de 2000 ft
Núvols disperses a una alçada de 8000 ft
Cel ennuvolat a una alçada de 20000 ft
xàfecs en les proximitats

TAF: MYNN 2612/2712 25006KT 9999 VCSH FEW020 SCT080 BKN200

Observacions i pronòstics meteorològics de més de 4000 aeroports (METAR i TAF).

Les estacions disponibles són els punts grocs i vermells al mapa.

Posi el ratolí al punt desitjat per veure el nom de l'estació.

Feu clic per veure les observacions i els pronòstics meteorològics.

Per canviar el mapa: feu clic els botons verds amb una creu de color negre per apropar; al botó verd amb un guió per allunyar la imatge; o en les fletxes verdes per a mapes adjacents.


METAR-TAF: